Time;durP1;ratioP1;P1;durP2;ratioP2;P2;SDS_P1;SDS_P2;PMS_P1;PMS_P2;Temp;Humidity;BMP_temperature;BMP_pressure;BME280_temperature;BME280_humidity;BME280_pressure;Samples;Min_cycle;Max_cycle;Signal;HPM_P1;HPM_P2
2022/12/02 00:00:55;;;;;;;26.00;11.97;;;2.10;99.90;;;;;;5037198;28;20305;-80
2022/12/02 00:03:23;;;;;;;26.40;13.17;;;2.10;99.90;;;;;;5038471;28;20204;-82
2022/12/02 00:05:52;;;;;;;26.43;12.37;;;2.10;99.90;;;;;;5037234;28;20222;-81
2022/12/02 00:08:24;;;;;;;24.63;12.43;;;2.20;99.90;;;;;;5038108;28;20168;-80
2022/12/02 00:10:51;;;;;;;24.03;11.73;;;2.20;99.90;;;;;;5036723;28;20626;-80
2022/12/02 00:13:33;;;;;;;25.97;12.27;;;2.20;99.90;;;;;;5036595;28;20215;-81
2022/12/02 00:16:01;;;;;;;24.03;11.73;;;2.20;99.90;;;;;;5036203;28;20198;-80
2022/12/02 00:18:27;;;;;;;23.10;12.13;;;2.10;99.90;;;;;;5037174;28;20620;-80
2022/12/02 00:20:53;;;;;;;21.87;11.03;;;2.20;99.90;;;;;;5038248;28;20186;-80
2022/12/02 00:23:18;;;;;;;23.57;12.03;;;2.10;99.90;;;;;;5037997;28;20181;-80
2022/12/02 00:25:46;;;;;;;24.43;12.47;;;2.10;99.90;;;;;;5036257;28;20191;-80
2022/12/02 00:28:13;;;;;;;25.97;11.97;;;2.00;99.90;;;;;;5036579;28;20645;-80
2022/12/02 00:30:39;;;;;;;25.77;12.67;;;2.10;99.90;;;;;;5035987;28;20203;-80
2022/12/02 00:33:05;;;;;;;22.67;11.47;;;2.10;99.90;;;;;;5036465;28;20183;-80
2022/12/02 00:35:31;;;;;;;24.67;12.37;;;2.20;99.90;;;;;;5037791;28;20199;-81
2022/12/02 00:37:56;;;;;;;23.77;12.50;;;2.10;99.90;;;;;;5036781;28;20297;-80
2022/12/02 00:40:22;;;;;;;24.10;12.27;;;2.20;99.90;;;;;;5036487;28;20175;-80
2022/12/02 00:42:47;;;;;;;23.23;12.23;;;2.20;99.90;;;;;;5036320;28;20265;-80
2022/12/02 00:47:58;;;;;;;24.53;11.97;;;2.20;99.90;;;;;;5075636;28;20228;-80
2022/12/02 00:50:24;;;;;;;21.87;11.63;;;2.20;99.90;;;;;;5057169;28;20191;-79
2022/12/02 00:52:50;;;;;;;22.53;11.10;;;2.10;99.90;;;;;;5056813;28;20181;-80
2022/12/02 00:55:16;;;;;;;22.13;12.27;;;2.10;99.90;;;;;;5075114;28;20197;-80
2022/12/02 00:57:42;;;;;;;22.97;11.67;;;2.20;99.90;;;;;;5056959;28;20296;-80
2022/12/02 01:00:08;;;;;;;20.67;11.33;;;2.10;99.90;;;;;;5057184;28;20250;-80
2022/12/02 01:02:34;;;;;;;20.80;11.20;;;2.10;99.90;;;;;;5074761;28;20173;-80
2022/12/02 01:05:00;;;;;;;21.20;10.90;;;2.10;99.90;;;;;;5056986;28;20191;-79
2022/12/02 01:07:25;;;;;;;23.37;11.50;;;2.20;99.90;;;;;;5056872;28;20181;-81
2022/12/02 01:09:51;;;;;;;22.17;11.83;;;2.30;99.90;;;;;;5074971;28;20210;-80
2022/12/02 01:12:16;;;;;;;22.50;11.67;;;2.20;99.90;;;;;;5056641;28;20184;-79
2022/12/02 01:14:42;;;;;;;23.17;11.63;;;2.10;99.90;;;;;;5074458;28;20224;-80
2022/12/02 01:17:08;;;;;;;23.57;11.87;;;2.10;99.90;;;;;;5057101;28;20198;-82
2022/12/02 01:19:33;;;;;;;24.23;12.03;;;2.00;99.90;;;;;;5056502;28;20193;-79
2022/12/02 01:21:59;;;;;;;22.93;11.90;;;1.90;99.90;;;;;;5056617;28;20658;-79
2022/12/02 01:24:24;;;;;;;21.40;11.43;;;1.80;99.90;;;;;;5056405;28;20177;-80
2022/12/02 01:26:50;;;;;;;21.50;11.83;;;1.70;99.90;;;;;;5055881;28;20196;-82
2022/12/02 01:29:15;;;;;;;21.43;11.13;;;1.80;99.90;;;;;;5074117;28;20268;-80
2022/12/02 01:31:41;;;;;;;26.37;12.57;;;1.80;99.90;;;;;;5074050;28;20188;-80
2022/12/02 01:34:07;;;;;;;23.93;12.07;;;1.80;99.90;;;;;;5055868;28;20184;-80
2022/12/02 01:36:32;;;;;;;25.17;12.73;;;1.80;99.90;;;;;;5056188;28;20212;-79
2022/12/02 01:38:58;;;;;;;22.50;11.57;;;1.80;99.90;;;;;;5056400;28;20180;-80
2022/12/02 01:41:23;;;;;;;22.00;11.33;;;1.80;99.90;;;;;;5056410;28;20557;-79
2022/12/02 01:43:49;;;;;;;22.57;11.77;;;1.80;99.90;;;;;;5073861;28;20174;-80
2022/12/02 01:46:15;;;;;;;24.90;12.33;;;1.70;99.90;;;;;;5073534;28;20241;-81
2022/12/02 01:48:40;;;;;;;20.77;10.53;;;1.50;99.90;;;;;;5055758;28;20215;-79
2022/12/02 01:51:06;;;;;;;23.03;11.23;;;1.60;99.90;;;;;;5073536;28;20545;-80
2022/12/02 01:53:33;;;;;;;24.17;12.03;;;1.60;99.90;;;;;;5055465;28;20177;-79
2022/12/02 01:55:59;;;;;;;22.00;11.23;;;1.60;99.90;;;;;;5056041;28;20204;-79
2022/12/02 01:58:29;;;;;;;21.13;11.10;;;1.50;99.90;;;;;;5073586;28;20166;-80
2022/12/02 02:00:55;;;;;;;21.23;10.20;;;1.60;99.90;;;;;;5055718;28;20168;-80
2022/12/02 02:03:21;;;;;;;22.50;11.23;;;1.60;99.90;;;;;;5055345;28;20187;-79
2022/12/02 02:05:48;;;;;;;19.60;10.23;;;1.70;99.90;;;;;;5073288;28;20615;-79
2022/12/02 02:08:14;;;;;;;19.90;10.33;;;1.70;99.90;;;;;;5073881;28;20184;-81
2022/12/02 02:10:43;;;;;;;19.23;10.40;;;1.60;99.90;;;;;;5055358;28;20215;-81
2022/12/02 02:13:11;;;;;;;20.43;9.67;;;1.60;99.90;;;;;;5055001;28;20177;-80
2022/12/02 02:15:38;;;;;;;19.43;10.37;;;1.70;99.90;;;;;;5055273;28;20196;-80
2022/12/02 02:18:05;;;;;;;18.80;10.17;;;1.70;99.90;;;;;;5073268;28;20319;-82
2022/12/02 02:20:31;;;;;;;18.60;10.00;;;1.70;99.90;;;;;;5055336;28;20169;-79
2022/12/02 02:23:10;;;;;;;20.07;10.17;;;1.70;99.90;;;;;;5073245;28;20169;-80
2022/12/02 02:25:46;;;;;;;22.23;10.90;;;1.60;99.90;;;;;;5073629;28;20193;-80
2022/12/02 02:28:12;;;;;;;22.13;10.90;;;1.70;99.90;;;;;;5055174;28;20176;-79
2022/12/02 02:30:38;;;;;;;20.27;10.17;;;1.60;99.90;;;;;;5073239;28;20174;-79
2022/12/02 02:33:07;;;;;;;20.97;10.87;;;1.60;99.90;;;;;;5055351;28;20169;-80
2022/12/02 02:35:35;;;;;;;20.50;10.70;;;1.60;99.90;;;;;;5073353;28;20228;-80
2022/12/02 02:38:01;;;;;;;20.17;10.47;;;1.70;99.90;;;;;;5055386;28;20207;-81
2022/12/02 02:40:28;;;;;;;20.67;10.07;;;1.70;99.90;;;;;;5079641;28;20264;-79
2022/12/02 02:42:59;;;;;;;18.80;9.63;;;1.60;99.90;;;;;;5061283;28;20173;-80
2022/12/02 02:45:27;;;;;;;19.60;10.53;;;1.60;99.90;;;;;;5061672;28;20202;-80
2022/12/02 02:47:54;;;;;;;19.23;10.03;;;1.60;99.90;;;;;;5080280;28;20176;-80
2022/12/02 02:50:21;;;;;;;20.40;10.17;;;1.60;99.90;;;;;;5079974;28;20176;-79
2022/12/02 02:52:47;;;;;;;17.77;9.97;;;1.60;99.90;;;;;;5080164;28;20184;-80
2022/12/02 02:55:21;;;;;;;22.20;10.20;;;1.60;99.90;;;;;;5061410;28;20197;-79
2022/12/02 02:57:47;;;;;;;17.23;9.53;;;1.60;99.90;;;;;;5062161;28;20254;-80
2022/12/02 03:00:14;;;;;;;18.53;10.00;;;1.60;99.90;;;;;;5080075;28;20554;-79
2022/12/02 03:02:40;;;;;;;18.67;9.43;;;1.50;99.90;;;;;;5061409;28;20173;-79
2022/12/02 03:05:07;;;;;;;16.87;9.23;;;1.50;99.90;;;;;;5061274;28;20196;-81
2022/12/02 03:07:33;;;;;;;16.20;8.87;;;1.50;99.90;;;;;;5079621;28;20192;-81
2022/12/02 03:10:00;;;;;;;19.40;10.13;;;1.60;99.90;;;;;;5061558;28;20227;-79
2022/12/02 03:12:26;;;;;;;19.60;10.30;;;1.60;99.90;;;;;;5061862;28;20197;-80
2022/12/02 03:14:52;;;;;;;17.73;9.70;;;1.70;99.90;;;;;;5061393;28;20666;-80
2022/12/02 03:17:18;;;;;;;18.10;9.17;;;1.60;99.90;;;;;;5061516;28;20224;-80
2022/12/02 03:19:45;;;;;;;17.50;9.57;;;1.70;99.90;;;;;;5061771;28;20183;-79
2022/12/02 03:22:12;;;;;;;18.43;9.43;;;1.70;99.90;;;;;;5079579;28;20172;-81
2022/12/02 03:24:38;;;;;;;15.87;8.87;;;1.70;99.90;;;;;;5079975;28;20234;-80
2022/12/02 03:27:05;;;;;;;16.67;9.43;;;1.70;99.90;;;;;;5079344;28;20207;-80
2022/12/02 03:29:32;;;;;;;16.80;9.13;;;1.70;99.90;;;;;;5061639;28;20179;-80
2022/12/02 03:31:59;;;;;;;17.33;8.70;;;1.60;99.90;;;;;;5061355;28;20237;-81
2022/12/02 03:34:26;;;;;;;18.13;8.97;;;1.60;99.90;;;;;;5061410;28;20173;-80
2022/12/02 03:36:52;;;;;;;17.57;9.00;;;1.60;99.90;;;;;;5079242;28;20266;-80
2022/12/02 03:39:17;;;;;;;16.63;8.93;;;1.60;99.90;;;;;;5061358;28;20546;-79
2022/12/02 03:41:44;;;;;;;18.53;9.43;;;1.60;99.90;;;;;;5061146;28;20203;-80
2022/12/02 03:44:10;;;;;;;18.90;9.57;;;1.60;99.90;;;;;;5079294;28;20662;-80
2022/12/02 03:46:36;;;;;;;16.67;9.20;;;1.60;99.90;;;;;;5060901;28;20213;-80
2022/12/02 03:49:02;;;;;;;15.70;8.63;;;1.60;99.90;;;;;;5079263;28;20181;-79
2022/12/02 03:51:28;;;;;;;15.23;8.80;;;1.50;99.90;;;;;;5058131;28;20180;-80
2022/12/02 03:53:54;;;;;;;17.07;9.00;;;1.50;99.90;;;;;;5075407;28;20193;-79
2022/12/02 03:56:19;;;;;;;15.67;8.67;;;1.40;99.90;;;;;;5058298;28;20199;-80
2022/12/02 03:58:48;;;;;;;16.13;8.50;;;1.40;99.90;;;;;;5075961;28;20231;-80
2022/12/02 04:01:14;;;;;;;16.90;9.57;;;1.50;99.90;;;;;;5057925;28;20260;-80
2022/12/02 04:03:40;;;;;;;15.43;8.33;;;1.40;99.90;;;;;;5057284;28;20182;-79
2022/12/02 04:06:06;;;;;;;16.57;8.77;;;1.40;99.90;;;;;;5057912;28;20193;-79
2022/12/02 04:08:31;;;;;;;15.97;9.10;;;1.50;99.90;;;;;;5057663;28;20184;-80
2022/12/02 04:10:57;;;;;;;17.83;9.47;;;1.50;99.90;;;;;;5075806;28;20180;-80
2022/12/02 04:13:23;;;;;;;14.37;8.53;;;1.50;99.90;;;;;;5075766;28;20181;-80
2022/12/02 04:15:48;;;;;;;17.50;9.43;;;1.50;99.90;;;;;;5057964;28;20198;-80
2022/12/02 04:18:14;;;;;;;18.43;9.30;;;1.50;99.90;;;;;;5075920;28;20197;-80
2022/12/02 04:20:40;;;;;;;15.80;8.43;;;1.60;99.90;;;;;;5057826;28;20178;-80
2022/12/02 04:23:05;;;;;;;15.60;8.53;;;1.60;99.90;;;;;;5057214;28;20199;-81
2022/12/02 04:25:31;;;;;;;15.57;8.87;;;1.60;99.90;;;;;;5057556;28;20197;-80
2022/12/02 04:27:57;;;;;;;15.67;8.43;;;1.60;99.90;;;;;;5057666;28;20268;-80
2022/12/02 04:30:22;;;;;;;14.30;8.37;;;1.60;99.90;;;;;;5075334;28;20178;-79
2022/12/02 04:32:48;;;;;;;13.80;7.90;;;1.60;99.90;;;;;;5057122;28;20179;-80
2022/12/02 04:35:13;;;;;;;14.43;8.47;;;1.60;99.90;;;;;;5075537;28;20224;-80
2022/12/02 04:37:39;;;;;;;14.50;8.10;;;1.60;99.90;;;;;;5057425;28;20204;-79
2022/12/02 04:40:06;;;;;;;14.00;8.23;;;1.50;99.90;;;;;;5075383;28;20201;-80
2022/12/02 04:42:31;;;;;;;15.63;8.60;;;1.60;99.90;;;;;;5057122;28;20205;-80
2022/12/02 04:44:57;;;;;;;15.30;8.97;;;1.60;99.90;;;;;;5075112;28;20201;-79
2022/12/02 04:47:22;;;;;;;15.60;8.67;;;1.60;99.90;;;;;;5057637;28;20677;-81
2022/12/02 04:49:48;;;;;;;15.80;8.67;;;1.50;99.90;;;;;;5075140;28;20229;-80
2022/12/02 04:52:14;;;;;;;16.77;9.27;;;1.60;99.90;;;;;;5074757;28;20178;-77
2022/12/02 04:54:40;;;;;;;13.53;8.63;;;1.60;99.90;;;;;;5074723;28;20188;-80
2022/12/02 04:57:05;;;;;;;14.73;8.67;;;1.60;99.90;;;;;;5056882;28;20204;-80
2022/12/02 04:59:31;;;;;;;14.30;8.87;;;1.60;99.90;;;;;;5056972;28;20547;-81
2022/12/02 05:01:57;;;;;;;14.77;8.27;;;1.60;99.90;;;;;;5074122;28;20219;-80
2022/12/02 05:04:22;;;;;;;14.40;8.93;;;1.60;99.90;;;;;;5056641;28;20206;-80
2022/12/02 05:06:48;;;;;;;15.30;8.77;;;1.50;99.90;;;;;;5056690;28;20228;-80
2022/12/02 05:09:13;;;;;;;16.43;9.20;;;1.50;99.90;;;;;;5074793;28;20230;-80
2022/12/02 05:11:39;;;;;;;15.93;8.73;;;1.40;99.90;;;;;;5056521;28;20181;-80
2022/12/02 05:14:04;;;;;;;16.00;9.13;;;1.40;99.90;;;;;;5056788;28;20182;-79
2022/12/02 05:16:30;;;;;;;15.80;9.43;;;1.50;99.90;;;;;;5055894;28;20212;-80
2022/12/02 05:18:55;;;;;;;16.27;9.10;;;1.50;99.90;;;;;;5074447;28;20209;-80
2022/12/02 05:21:21;;;;;;;15.43;8.43;;;1.40;99.90;;;;;;5057097;28;20180;-80
2022/12/02 05:23:46;;;;;;;17.10;9.30;;;1.30;99.90;;;;;;5074273;28;20550;-80
2022/12/02 05:26:12;;;;;;;14.50;8.43;;;1.30;99.90;;;;;;5056464;28;20264;-80
2022/12/02 05:28:38;;;;;;;14.80;9.13;;;1.30;99.90;;;;;;5056163;28;20177;-80
2022/12/02 05:31:03;;;;;;;14.40;8.83;;;1.30;99.90;;;;;;5056464;28;20177;-80
2022/12/02 05:33:29;;;;;;;14.20;8.60;;;1.30;99.90;;;;;;5074089;28;20184;-79
2022/12/02 05:35:54;;;;;;;15.73;8.70;;;1.40;99.90;;;;;;5055962;28;20193;-82
2022/12/02 05:38:20;;;;;;;15.83;9.07;;;1.40;99.90;;;;;;5074079;28;20239;-80
2022/12/02 05:40:46;;;;;;;16.37;8.83;;;1.30;99.90;;;;;;5055858;28;20169;-80
2022/12/02 05:43:20;;;;;;;16.50;9.30;;;1.30;99.90;;;;;;5074137;28;20592;-80
2022/12/02 05:45:47;;;;;;;15.70;9.07;;;1.30;99.90;;;;;;5056075;28;20258;-80
2022/12/02 05:48:15;;;;;;;14.93;8.67;;;1.30;99.90;;;;;;5073482;28;20200;-80
2022/12/02 05:50:42;;;;;;;14.93;9.10;;;1.30;99.90;;;;;;5056358;28;20176;-81
2022/12/02 05:53:34;;;;;;;16.43;8.67;;;1.30;99.90;;;;;;5055656;28;20181;-80
2022/12/02 05:56:00;;;;;;;14.87;8.63;;;1.30;99.90;;;;;;5070066;28;20198;-81
2022/12/02 05:58:26;;;;;;;14.90;8.70;;;1.40;99.90;;;;;;5057232;28;20208;-80
2022/12/02 06:00:57;;;;;;;14.83;8.97;;;1.40;99.90;;;;;;5056426;28;20165;-80
2022/12/02 06:03:23;;;;;;;14.40;8.97;;;1.40;99.90;;;;;;5074998;28;20180;-79
2022/12/02 06:05:52;;;;;;;16.43;10.10;;;1.40;99.90;;;;;;5056515;28;20189;-78
2022/12/02 06:08:21;;;;;;;16.53;10.23;;;1.30;99.90;;;;;;5056950;28;20556;-81
2022/12/02 06:10:53;;;;;;;15.90;9.13;;;1.50;99.90;;;;;;5072861;28;20170;-81
2022/12/02 06:13:26;;;;;;;16.63;10.50;;;1.50;99.90;;;;;;5056480;28;20197;-77
2022/12/02 06:15:52;;;;;;;14.30;8.50;;;1.70;99.90;;;;;;5056561;28;20211;-81
2022/12/02 06:18:19;;;;;;;15.30;9.13;;;1.80;99.90;;;;;;5055599;28;20200;-82
2022/12/02 06:20:46;;;;;;;17.23;11.13;;;1.70;99.90;;;;;;5073677;28;20170;-81
2022/12/02 06:23:19;;;;;;;22.17;16.03;;;1.50;99.90;;;;;;5074390;28;20169;-79
2022/12/02 06:25:46;;;;;;;25.03;17.63;;;1.30;99.90;;;;;;5075516;28;20189;-82
2022/12/02 06:28:28;;;;;;;17.90;10.57;;;1.20;99.90;;;;;;5057004;28;20170;-81
2022/12/02 06:30:57;;;;;;;16.17;9.23;;;1.20;99.90;;;;;;5074621;28;20185;-82
2022/12/02 06:33:34;;;;;;;17.13;9.97;;;1.20;99.90;;;;;;5055751;28;20179;-82
2022/12/02 06:36:03;;;;;;;14.93;8.20;;;1.10;99.90;;;;;;5055615;28;20279;-82
2022/12/02 06:38:33;;;;;;;16.80;8.70;;;1.30;99.90;;;;;;5057984;28;20220;-84
2022/12/02 06:41:01;;;;;;;15.90;8.97;;;1.20;99.90;;;;;;5076070;28;20248;-83
2022/12/02 06:43:29;;;;;;;16.27;9.20;;;1.30;99.90;;;;;;5056654;28;20166;-83
2022/12/02 06:45:56;;;;;;;15.10;9.13;;;1.30;99.90;;;;;;5068501;23;20228;-84
2022/12/02 06:48:38;;;;;;;15.90;9.40;;;1.20;99.90;;;;;;5054372;28;20583;-83
2022/12/02 06:51:22;;;;;;;15.80;8.43;;;1.20;99.90;;;;;;5053591;28;20260;-84
2022/12/02 06:53:47;;;;;;;14.80;9.17;;;1.20;99.90;;;;;;5053509;28;20643;-83
2022/12/02 06:56:16;;;;;;;16.53;9.63;;;1.20;99.90;;;;;;5056860;28;20200;-84
2022/12/02 06:58:58;;;;;;;16.43;9.23;;;1.20;99.90;;;;;;5058356;28;20175;-84
2022/12/02 07:01:29;;;;;;;14.03;8.87;;;1.30;99.90;;;;;;5057831;28;20166;-84
2022/12/02 07:03:55;;;;;;;15.97;9.13;;;1.30;99.90;;;;;;5059882;28;20546;-84
2022/12/02 07:06:25;;;;;;;14.43;8.27;;;1.20;99.90;;;;;;5059028;28;20200;-84
2022/12/02 07:08:54;;;;;;;15.87;9.07;;;1.10;99.90;;;;;;5059075;28;20177;-84
2022/12/02 07:14:30;;;;;;;15.20;9.27;;;1.00;99.90;;;;;;5062196;28;20173;-84
2022/12/02 07:17:02;;;;;;;15.80;9.33;;;1.00;99.90;;;;;;5062804;28;20201;-84
2022/12/02 07:19:39;;;;;;;13.07;7.90;;;0.90;99.90;;;;;;5062980;28;20176;-84
2022/12/02 07:22:17;;;;;;;15.67;9.10;;;0.90;99.90;;;;;;5056280;28;20193;-84
2022/12/02 07:25:05;;;;;;;15.43;9.17;;;0.90;99.90;;;;;;5054579;28;20181;-84
2022/12/02 07:27:34;;;;;;;16.07;8.67;;;1.00;99.90;;;;;;5057913;28;20170;-84
2022/12/02 07:30:00;;;;;;;16.90;10.07;;;1.00;99.90;;;;;;5058164;28;20183;-84
2022/12/02 07:32:26;;;;;;;15.17;9.47;;;1.00;99.90;;;;;;5057940;28;20312;-81
2022/12/02 07:34:52;;;;;;;13.30;8.27;;;1.00;99.90;;;;;;5059418;28;20228;-80
2022/12/02 07:37:18;;;;;;;14.97;10.47;;;1.00;99.90;;;;;;5056020;28;20212;-82
2022/12/02 07:39:43;;;;;;;14.07;8.07;;;1.00;99.90;;;;;;5056456;28;20181;-79
2022/12/02 07:42:09;;;;;;;13.67;8.57;;;1.00;99.90;;;;;;5055080;28;20219;-81
2022/12/02 07:44:34;;;;;;;15.33;10.43;;;1.00;99.90;;;;;;5056201;28;20635;-81
2022/12/02 07:47:00;;;;;;;14.53;8.70;;;1.00;99.90;;;;;;5056965;28;20216;-81
2022/12/02 07:49:26;;;;;;;15.20;8.80;;;1.10;99.90;;;;;;5055861;28;20192;-82
2022/12/02 07:51:52;;;;;;;13.37;8.30;;;1.10;99.90;;;;;;5057054;28;20182;-81
2022/12/02 07:54:18;;;;;;;14.47;9.70;;;1.10;99.90;;;;;;5055830;28;20203;-81
2022/12/02 07:56:43;;;;;;;13.43;7.80;;;1.10;99.90;;;;;;5055655;28;20259;-82
2022/12/02 07:59:09;;;;;;;14.50;8.57;;;1.20;99.90;;;;;;5056726;28;20209;-84
2022/12/02 08:01:34;;;;;;;14.60;9.10;;;1.20;99.90;;;;;;5055416;28;20173;-83
2022/12/02 08:04:00;;;;;;;13.13;8.17;;;1.30;99.90;;;;;;5056015;28;20182;-84
2022/12/02 08:06:26;;;;;;;13.97;8.27;;;1.30;99.90;;;;;;5056759;28;20194;-83
2022/12/02 08:08:51;;;;;;;14.33;8.13;;;1.30;99.90;;;;;;5055310;28;20209;-84
2022/12/02 08:11:17;;;;;;;15.53;8.37;;;1.30;99.90;;;;;;5058422;28;20205;-84
2022/12/02 08:13:42;;;;;;;14.37;8.77;;;1.60;99.90;;;;;;5057888;28;20193;-84
2022/12/02 08:16:10;;;;;;;16.83;9.63;;;1.60;99.90;;;;;;5065009;28;20221;-85
2022/12/02 08:18:35;;;;;;;48.00;41.00;;;1.40;99.90;;;;;;5058865;28;20194;-84
2022/12/02 08:21:01;;;;;;;19.97;13.90;;;1.40;99.90;;;;;;5056641;28;20270;-85
2022/12/02 08:23:26;;;;;;;17.53;10.67;;;1.30;99.90;;;;;;5054618;28;20185;-84
2022/12/02 08:25:52;;;;;;;14.23;8.33;;;1.30;99.90;;;;;;5053831;28;20208;-83
2022/12/02 08:28:17;;;;;;;14.70;8.43;;;1.30;99.90;;;;;;5054660;28;20197;-83
2022/12/02 08:30:43;;;;;;;13.40;8.90;;;1.30;99.90;;;;;;5055610;28;20184;-83
2022/12/02 08:33:08;;;;;;;15.47;10.43;;;1.30;99.90;;;;;;5053375;28;20191;-83
2022/12/02 08:35:34;;;;;;;16.30;10.87;;;1.30;99.90;;;;;;5053850;28;20201;-84
2022/12/02 08:38:00;;;;;;;15.57;9.77;;;1.30;99.90;;;;;;5053259;28;20690;-83
2022/12/02 08:40:25;;;;;;;14.70;9.83;;;1.30;99.90;;;;;;5053501;28;20260;-84
2022/12/02 08:42:51;;;;;;;15.47;10.80;;;1.30;99.90;;;;;;5053590;28;20169;-84
2022/12/02 08:45:16;;;;;;;14.60;8.37;;;1.30;99.90;;;;;;5054981;28;20304;-84
2022/12/02 08:47:42;;;;;;;15.60;10.47;;;1.40;99.90;;;;;;5053670;28;20192;-84
2022/12/02 08:50:09;;;;;;;15.07;9.30;;;1.40;99.90;;;;;;5053995;28;20174;-84
2022/12/02 08:52:35;;;;;;;14.07;8.77;;;1.40;99.90;;;;;;5053242;28;20177;-84
2022/12/02 08:55:01;;;;;;;14.50;8.80;;;1.40;99.90;;;;;;5053412;28;20239;-84
2022/12/02 08:57:26;;;;;;;13.57;8.27;;;1.50;99.90;;;;;;5050109;28;20229;-84
2022/12/02 08:59:52;;;;;;;16.50;9.73;;;1.50;99.90;;;;;;5053230;28;20178;-84
2022/12/02 09:02:17;;;;;;;13.27;8.40;;;1.50;99.90;;;;;;5055148;28;20213;-81
2022/12/02 09:04:43;;;;;;;12.47;8.23;;;1.50;99.90;;;;;;5052627;28;20182;-84
2022/12/02 09:07:08;;;;;;;15.90;10.60;;;1.50;99.90;;;;;;5051324;28;20697;-84
2022/12/02 09:09:34;;;;;;;14.00;8.70;;;1.50;99.90;;;;;;5057201;28;20204;-84
2022/12/02 09:12:01;;;;;;;16.03;9.80;;;1.60;99.90;;;;;;5058275;28;20178;-84
2022/12/02 09:14:27;;;;;;;13.80;8.60;;;1.50;99.90;;;;;;5057597;28;20555;-84
2022/12/02 09:16:53;;;;;;;13.60;8.80;;;1.50;99.90;;;;;;5054906;28;20232;-84
2022/12/02 09:19:19;;;;;;;16.17;10.23;;;1.60;99.90;;;;;;5055716;28;20186;-84
2022/12/02 09:21:44;;;;;;;15.80;9.63;;;1.60;99.90;;;;;;5055993;28;20203;-84
2022/12/02 09:24:10;;;;;;;12.07;7.90;;;1.60;99.90;;;;;;5053565;28;20185;-84
2022/12/02 09:26:35;;;;;;;13.47;8.07;;;1.70;99.90;;;;;;5057070;28;20271;-84
2022/12/02 09:29:01;;;;;;;12.60;7.77;;;1.70;99.90;;;;;;5054660;28;20268;-84
2022/12/02 09:31:26;;;;;;;13.50;8.23;;;1.80;99.90;;;;;;5057294;28;20185;-84
2022/12/02 09:33:52;;;;;;;13.50;8.73;;;1.80;99.90;;;;;;5057097;28;20589;-84
2022/12/02 09:36:17;;;;;;;12.80;8.20;;;1.80;99.90;;;;;;5056906;28;20193;-84
2022/12/02 09:38:43;;;;;;;14.97;9.00;;;1.80;99.90;;;;;;5056538;28;20289;-84
2022/12/02 09:41:09;;;;;;;13.03;9.00;;;1.70;99.90;;;;;;5052609;28;20180;-83
2022/12/02 09:43:34;;;;;;;13.10;8.37;;;1.70;99.90;;;;;;5037698;28;20174;-84
2022/12/02 09:46:00;;;;;;;12.57;7.97;;;1.70;99.90;;;;;;5037035;28;20359;-84
2022/12/02 09:48:27;;;;;;;11.07;8.17;;;1.70;99.90;;;;;;5037277;28;20175;-84
2022/12/02 09:50:55;;;;;;;14.00;8.70;;;1.80;99.90;;;;;;5037549;28;20206;-84
2022/12/02 09:53:21;;;;;;;13.83;9.83;;;1.80;99.90;;;;;;5037546;28;20207;-84
2022/12/02 09:55:47;;;;;;;12.27;7.40;;;1.70;99.90;;;;;;5046573;28;20210;-84
2022/12/02 09:58:18;;;;;;;12.10;7.87;;;1.70;99.90;;;;;;5056691;28;20690;-84
2022/12/02 10:00:45;;;;;;;10.77;7.40;;;1.80;99.90;;;;;;5056369;28;20174;-84
2022/12/02 10:03:13;;;;;;;12.67;8.37;;;1.80;99.90;;;;;;5056686;28;20188;-83
2022/12/02 10:05:39;;;;;;;10.57;7.37;;;1.80;99.90;;;;;;5056166;28;20223;-84
2022/12/02 10:08:11;;;;;;;11.97;7.57;;;1.90;99.90;;;;;;5055130;28;20177;-84
2022/12/02 10:10:41;;;;;;;11.80;7.63;;;1.90;99.90;;;;;;5055582;28;20265;-84
2022/12/02 10:13:17;;;;;;;11.73;8.20;;;1.90;99.90;;;;;;5057460;28;20182;-84
2022/12/02 10:15:44;;;;;;;11.47;7.93;;;1.80;99.90;;;;;;5056254;28;20285;-84
2022/12/02 10:18:19;;;;;;;13.50;8.40;;;1.80;99.90;;;;;;5052805;28;20577;-84
2022/12/02 10:20:45;;;;;;;11.53;6.97;;;1.80;99.90;;;;;;5053978;28;20173;-84
2022/12/02 10:23:19;;;;;;;11.23;7.17;;;1.80;99.90;;;;;;5052907;28;20740;-84
2022/12/02 10:26:08;;;;;;;10.13;6.60;;;1.90;99.90;;;;;;5052709;28;20202;-83
2022/12/02 10:28:35;;;;;;;9.87;6.63;;;1.90;99.90;;;;;;5051635;28;20181;-84
2022/12/02 10:31:08;;;;;;;10.37;6.87;;;1.90;99.90;;;;;;5055519;28;20185;-84
2022/12/02 10:33:37;;;;;;;11.20;6.90;;;1.80;99.90;;;;;;5055765;28;20715;-84
2022/12/02 10:36:03;;;;;;;10.67;7.10;;;1.80;99.90;;;;;;5055253;28;20204;-84
2022/12/02 10:38:42;;;;;;;10.70;7.20;;;1.80;99.90;;;;;;5055439;28;20209;-84
2022/12/02 10:41:15;;;;;;;11.70;7.37;;;1.70;99.90;;;;;;5055354;28;20185;-84
2022/12/02 10:44:00;;;;;;;10.80;7.80;;;1.70;99.90;;;;;;5054676;28;20175;-84
2022/12/02 10:46:26;;;;;;;12.23;7.83;;;1.60;99.90;;;;;;5053303;28;20703;-83
2022/12/02 10:48:51;;;;;;;70.80;34.37;;;1.70;99.90;;;;;;5050742;28;20235;-83
2022/12/02 10:51:19;;;;;;;13.53;8.37;;;1.70;99.90;;;;;;5047287;28;20667;-83
2022/12/02 10:53:50;;;;;;;70.23;38.53;;;1.70;99.90;;;;;;5032091;28;20236;-82
2022/12/02 10:56:22;;;;;;;31.77;20.57;;;1.70;99.90;;;;;;5035697;28;20190;-82
2022/12/02 10:58:50;;;;;;;18.23;12.40;;;1.60;99.90;;;;;;5035330;28;20186;-81
2022/12/02 11:01:17;;;;;;;12.40;7.83;;;1.70;99.90;;;;;;5038168;28;20677;-82
2022/12/02 11:03:42;;;;;;;12.10;7.43;;;1.70;99.90;;;;;;5037366;28;20233;-83
2022/12/02 11:06:17;;;;;;;11.70;8.20;;;1.50;99.90;;;;;;5036043;28;20198;-82
2022/12/02 11:08:44;;;;;;;10.47;7.70;;;1.50;99.90;;;;;;5036655;28;20175;-82
2022/12/02 11:11:21;;;;;;;9.67;7.07;;;1.50;99.90;;;;;;5056546;28;20174;-82
2022/12/02 11:13:56;;;;;;;10.43;7.30;;;1.60;99.90;;;;;;5053209;28;20181;-82
2022/12/02 11:16:28;;;;;;;11.13;7.23;;;1.60;99.90;;;;;;5071465;28;20193;-82
2022/12/02 11:19:10;;;;;;;10.43;6.80;;;1.70;99.90;;;;;;5056532;28;20166;-82
2022/12/02 11:21:37;;;;;;;9.47;7.37;;;1.70;99.90;;;;;;5055582;28;20166;-82
2022/12/02 11:24:21;;;;;;;10.77;6.53;;;1.80;99.90;;;;;;5055332;28;20170;-82
2022/12/02 11:26:59;;;;;;;8.87;6.20;;;1.70;99.90;;;;;;5055268;28;20204;-81
2022/12/02 11:29:27;;;;;;;9.03;6.13;;;1.70;99.90;;;;;;5050165;28;20181;-81
2022/12/02 11:32:20;;;;;;;9.73;7.07;;;1.70;99.90;;;;;;5052698;28;20638;-81
2022/12/02 11:34:51;;;;;;;10.27;7.00;;;1.80;99.90;;;;;;5055558;28;20177;-81
2022/12/02 11:37:28;;;;;;;9.43;6.30;;;1.80;99.90;;;;;;5055342;28;20209;-80
2022/12/02 11:40:00;;;;;;;9.90;6.87;;;1.80;99.90;;;;;;5055853;28;20169;-80
2022/12/02 11:42:27;;;;;;;9.17;6.43;;;1.80;99.90;;;;;;5054577;28;20637;-82
2022/12/02 11:44:53;;;;;;;9.30;6.20;;;1.90;99.90;;;;;;5055010;28;20174;-81
2022/12/02 11:47:31;;;;;;;9.87;6.40;;;1.90;99.90;;;;;;5054809;28;20209;-81
2022/12/02 11:50:11;;;;;;;8.63;6.27;;;1.90;99.90;;;;;;5055766;28;20212;-81
2022/12/02 11:52:43;;;;;;;8.23;5.90;;;1.80;99.90;;;;;;5055342;28;20170;-81
2022/12/02 11:55:16;;;;;;;8.60;6.07;;;1.90;99.90;;;;;;5056021;28;20189;-83
2022/12/02 11:57:52;;;;;;;9.93;6.83;;;1.70;99.90;;;;;;5055540;28;20199;-83
2022/12/02 12:00:25;;;;;;;10.00;7.00;;;1.70;99.90;;;;;;5055910;28;20180;-84
2022/12/02 12:03:11;;;;;;;10.30;6.40;;;1.70;99.90;;;;;;5056458;28;20170;-83
2022/12/02 12:05:37;;;;;;;9.27;6.77;;;1.80;99.90;;;;;;5054894;28;20243;-84
2022/12/02 12:08:03;;;;;;;8.77;6.27;;;1.80;99.90;;;;;;5054997;28;20277;-84
2022/12/02 12:10:32;;;;;;;9.00;5.90;;;1.80;99.90;;;;;;5056345;28;20202;-84
2022/12/02 12:13:21;;;;;;;9.03;6.23;;;1.80;99.90;;;;;;5053805;28;20174;-84
2022/12/02 12:16:00;;;;;;;9.47;6.10;;;1.80;99.90;;;;;;5055536;28;20190;-84
2022/12/02 12:18:36;;;;;;;8.07;5.93;;;1.90;99.90;;;;;;5055217;28;20209;-84
2022/12/02 12:21:01;;;;;;;8.90;6.00;;;1.80;99.90;;;;;;5054741;28;20197;-84
2022/12/02 12:23:45;;;;;;;8.60;5.73;;;1.70;99.90;;;;;;5053094;28;20207;-83
2022/12/02 12:26:33;;;;;;;8.70;6.43;;;1.80;99.90;;;;;;5054762;28;20327;-83
2022/12/02 12:29:04;;;;;;;8.90;6.20;;;1.80;99.90;;;;;;5055030;28;20171;-81
2022/12/02 12:31:30;;;;;;;8.77;6.13;;;1.80;99.90;;;;;;5053393;28;20637;-81
2022/12/02 12:33:56;;;;;;;7.27;5.47;;;1.80;99.90;;;;;;5054735;28;20181;-81
2022/12/02 12:36:21;;;;;;;7.40;5.80;;;1.80;99.90;;;;;;5053435;28;20229;-81
2022/12/02 12:38:47;;;;;;;9.10;6.27;;;1.80;99.90;;;;;;5053322;28;20204;-81
2022/12/02 12:41:12;;;;;;;10.00;6.20;;;1.70;99.90;;;;;;5053556;28;20528;-81
2022/12/02 12:43:39;;;;;;;9.00;6.70;;;1.70;99.90;;;;;;5054283;28;20170;-81
2022/12/02 12:46:05;;;;;;;8.23;5.90;;;1.70;99.90;;;;;;5070959;22;20222;-84
2022/12/02 12:48:30;;;;;;;8.00;5.97;;;1.70;99.90;;;;;;5032715;28;20600;-84
2022/12/02 12:50:56;;;;;;;9.50;6.50;;;1.70;99.90;;;;;;5034292;28;20179;-84
2022/12/02 12:53:21;;;;;;;8.10;5.67;;;1.70;99.90;;;;;;5032685;28;20179;-84
2022/12/02 12:55:47;;;;;;;8.43;5.77;;;1.80;99.90;;;;;;5049145;28;20195;-84